sensor_id;sensor_type;location;lat;lon;timestamp;pressure;altitude;pressure_sealevel;temperature
64296;BMP280;51082;38.236;15.432;2023-11-18T00:00:55;101359.31;;;22.72
64296;BMP280;51082;38.236;15.432;2023-11-18T00:01:56;101373.13;;;22.74
64296;BMP280;51082;38.236;15.432;2023-11-18T00:02:58;101371.53;;;22.73
64296;BMP280;51082;38.236;15.432;2023-11-18T00:04:01;101368.28;;;22.71
64296;BMP280;51082;38.236;15.432;2023-11-18T00:05:03;101378.16;;;22.71
64296;BMP280;51082;38.236;15.432;2023-11-18T00:06:04;101376.81;;;22.68
64296;BMP280;51082;38.236;15.432;2023-11-18T00:07:06;101367.00;;;22.69
64296;BMP280;51082;38.236;15.432;2023-11-18T00:08:07;101361.91;;;22.62
64296;BMP280;51082;38.236;15.432;2023-11-18T00:09:10;101366.19;;;22.68
64296;BMP280;51082;38.236;15.432;2023-11-18T00:10:13;101360.88;;;22.68
64296;BMP280;51082;38.236;15.432;2023-11-18T00:11:15;101367.75;;;22.64
64296;BMP280;51082;38.236;15.432;2023-11-18T00:12:16;101366.16;;;22.63
64296;BMP280;51082;38.236;15.432;2023-11-18T00:13:18;101366.97;;;22.64
64296;BMP280;51082;38.236;15.432;2023-11-18T00:14:20;101362.44;;;22.64
64296;BMP280;51082;38.236;15.432;2023-11-18T00:15:22;101359.53;;;22.66
64296;BMP280;51082;38.236;15.432;2023-11-18T00:16:23;101373.06;;;22.64
64296;BMP280;51082;38.236;15.432;2023-11-18T00:17:24;101363.75;;;22.62
64296;BMP280;51082;38.236;15.432;2023-11-18T00:18:26;101373.06;;;22.64
64296;BMP280;51082;38.236;15.432;2023-11-18T00:19:29;101371.72;;;22.62
64296;BMP280;51082;38.236;15.432;2023-11-18T00:20:31;101376.78;;;22.63
64296;BMP280;51082;38.236;15.432;2023-11-18T00:21:32;101362.69;;;22.63
64296;BMP280;51082;38.236;15.432;2023-11-18T00:22:34;101371.47;;;22.63
64296;BMP280;51082;38.236;15.432;2023-11-18T00:23:35;101366.97;;;22.64
64296;BMP280;51082;38.236;15.432;2023-11-18T00:24:37;101364.53;;;22.57
64296;BMP280;51082;38.236;15.432;2023-11-18T00:25:38;101373.31;;;22.63
64296;BMP280;51082;38.236;15.432;2023-11-18T00:26:41;101366.16;;;22.63
64296;BMP280;51082;38.236;15.432;2023-11-18T00:27:42;101373.06;;;22.64
64296;BMP280;51082;38.236;15.432;2023-11-18T00:28:45;101353.91;;;22.57
64296;BMP280;51082;38.236;15.432;2023-11-18T00:29:46;101372.53;;;22.62
64296;BMP280;51082;38.236;15.432;2023-11-18T00:30:48;101370.66;;;22.63
64296;BMP280;51082;38.236;15.432;2023-11-18T00:31:49;101363.47;;;22.58
64296;BMP280;51082;38.236;15.432;2023-11-18T00:32:50;101365.09;;;22.59
64296;BMP280;51082;38.236;15.432;2023-11-18T00:33:53;101376.47;;;22.60
64296;BMP280;51082;38.236;15.432;2023-11-18T00:34:55;101372.53;;;22.62
64296;BMP280;51082;38.236;15.432;2023-11-18T00:35:56;101381.78;;;22.60
64296;BMP280;51082;38.236;15.432;2023-11-18T00:36:59;101370.41;;;22.59
64296;BMP280;51082;38.236;15.432;2023-11-18T00:38:01;101381.03;;;22.59
64296;BMP280;51082;38.236;15.432;2023-11-18T00:39:03;101382.59;;;22.60
64296;BMP280;51082;38.236;15.432;2023-11-18T00:40:05;101382.59;;;22.60
64296;BMP280;51082;38.236;15.432;2023-11-18T00:41:08;101388.41;;;22.57
64296;BMP280;51082;38.236;15.432;2023-11-18T00:42:09;101380.19;;;22.59
64296;BMP280;51082;38.236;15.432;2023-11-18T00:43:11;101384.44;;;22.60
64296;BMP280;51082;38.236;15.432;2023-11-18T00:44:12;101386.81;;;22.56
64296;BMP280;51082;38.236;15.432;2023-11-18T00:45:15;101382.31;;;22.57
64296;BMP280;51082;38.236;15.432;2023-11-18T00:46:16;101383.09;;;22.57
64296;BMP280;51082;38.236;15.432;2023-11-18T00:47:18;101375.72;;;22.59
64296;BMP280;51082;38.236;15.432;2023-11-18T00:48:19;101375.72;;;22.59
64296;BMP280;51082;38.236;15.432;2023-11-18T00:49:21;101384.69;;;22.58
64296;BMP280;51082;38.236;15.432;2023-11-18T00:50:24;101376.19;;;22.56
64296;BMP280;51082;38.236;15.432;2023-11-18T00:51:26;101384.16;;;22.56
64296;BMP280;51082;38.236;15.432;2023-11-18T00:52:28;101377.78;;;22.57
64296;BMP280;51082;38.236;15.432;2023-11-18T00:53:30;101378.84;;;22.56
64296;BMP280;51082;38.236;15.432;2023-11-18T00:54:31;101380.72;;;22.56
64296;BMP280;51082;38.236;15.432;2023-11-18T00:55:33;101382.59;;;22.55
64296;BMP280;51082;38.236;15.432;2023-11-18T00:56:34;101401.16;;;22.55
64296;BMP280;51082;38.236;15.432;2023-11-18T00:57:37;101394.53;;;22.58
64296;BMP280;51082;38.236;15.432;2023-11-18T00:58:39;101384.69;;;22.58
64296;BMP280;51082;38.236;15.432;2023-11-18T00:59:43;101384.69;;;22.58
64296;BMP280;51082;38.236;15.432;2023-11-18T01:00:44;101386.03;;;22.56
64296;BMP280;51082;38.236;15.432;2023-11-18T01:01:45;101390.56;;;22.55
64296;BMP280;51082;38.236;15.432;2023-11-18T01:02:47;101393.72;;;22.57
64296;BMP280;51082;38.236;15.432;2023-11-18T01:03:49;101400.09;;;22.56
64296;BMP280;51082;38.236;15.432;2023-11-18T01:04:51;101385.25;;;22.55
64296;BMP280;51082;38.236;15.432;2023-11-18T01:05:53;101396.38;;;22.52
64296;BMP280;51082;38.236;15.432;2023-11-18T01:06:56;101396.38;;;22.52
64296;BMP280;51082;38.236;15.432;2023-11-18T01:07:58;101381.22;;;22.53
64296;BMP280;51082;38.236;15.432;2023-11-18T01:09:00;101396.88;;;22.54
64296;BMP280;51082;38.236;15.432;2023-11-18T01:10:01;101396.84;;;22.49
64296;BMP280;51082;38.236;15.432;2023-11-18T01:11:04;101381.47;;;22.46
64296;BMP280;51082;38.236;15.432;2023-11-18T01:12:06;101396.38;;;22.52
64296;BMP280;51082;38.236;15.432;2023-11-18T01:13:10;101405.66;;;22.55
64296;BMP280;51082;38.236;15.432;2023-11-18T01:14:11;101404.03;;;22.54
64296;BMP280;51082;38.236;15.432;2023-11-18T01:15:13;101401.97;;;22.56
64296;BMP280;51082;38.236;15.432;2023-11-18T01:16:14;101399.53;;;22.54
64296;BMP280;51082;38.236;15.432;2023-11-18T01:17:17;101400.88;;;22.52
64296;BMP280;51082;38.236;15.432;2023-11-18T01:18:18;101407.50;;;22.54
64296;BMP280;51082;38.236;15.432;2023-11-18T01:19:20;101401.16;;;22.55
64296;BMP280;51082;38.236;15.432;2023-11-18T01:20:21;101397.94;;;22.53
64296;BMP280;51082;38.236;15.432;2023-11-18T01:21:24;101403.81;;;22.55
64296;BMP280;51082;38.236;15.432;2023-11-18T01:22:26;101412.59;;;22.56
64296;BMP280;51082;38.236;15.432;2023-11-18T01:23:28;101406.47;;;22.55
64296;BMP280;51082;38.236;15.432;2023-11-18T01:24:29;101405.38;;;22.56
64296;BMP280;51082;38.236;15.432;2023-11-18T01:25:31;101409.66;;;22.57
64296;BMP280;51082;38.236;15.432;2023-11-18T01:26:32;101408.03;;;22.56
64296;BMP280;51082;38.236;15.432;2023-11-18T01:27:34;101416.28;;;22.55
64296;BMP280;51082;38.236;15.432;2023-11-18T01:28:35;101412.00;;;22.54
64296;BMP280;51082;38.236;15.432;2023-11-18T01:29:39;101410.41;;;22.53
64296;BMP280;51082;38.236;15.432;2023-11-18T01:30:40;101429.25;;;22.51
64296;BMP280;51082;38.236;15.432;2023-11-18T01:31:45;101419.16;;;22.48
64296;BMP280;51082;38.236;15.432;2023-11-18T01:32:46;101428.69;;;22.49
64296;BMP280;51082;38.236;15.432;2023-11-18T01:33:49;101426.84;;;22.50
64296;BMP280;51082;38.236;15.432;2023-11-18T01:34:50;101431.34;;;22.49
64296;BMP280;51082;38.236;15.432;2023-11-18T01:35:54;101413.06;;;22.53
64296;BMP280;51082;38.236;15.432;2023-11-18T01:36:57;101421.81;;;22.48
64296;BMP280;51082;38.236;15.432;2023-11-18T01:37:59;101414.09;;;22.47
64296;BMP280;51082;38.236;15.432;2023-11-18T01:39:00;101427.88;;;22.49
64296;BMP280;51082;38.236;15.432;2023-11-18T01:40:03;101425.22;;;22.49
64296;BMP280;51082;38.236;15.432;2023-11-18T01:41:05;101433.53;;;22.52
64296;BMP280;51082;38.236;15.432;2023-11-18T01:42:08;101421.81;;;22.48
64296;BMP280;51082;38.236;15.432;2023-11-18T01:43:09;101426.56;;;22.46
64296;BMP280;51082;38.236;15.432;2023-11-18T01:44:14;101429.22;;;22.46
64296;BMP280;51082;38.236;15.432;2023-11-18T01:45:15;101436.13;;;22.47
64296;BMP280;51082;38.236;15.432;2023-11-18T01:46:18;101430.06;;;22.52
64296;BMP280;51082;38.236;15.432;2023-11-18T01:47:20;101438.81;;;22.52
64296;BMP280;51082;38.236;15.432;2023-11-18T01:48:22;101435.09;;;22.53
64296;BMP280;51082;38.236;15.432;2023-11-18T01:49:27;101427.13;;;22.48
64296;BMP280;51082;38.236;15.432;2023-11-18T01:50:29;101434.78;;;22.50
64296;BMP280;51082;38.236;15.432;2023-11-18T01:51:30;101442.53;;;22.51
64296;BMP280;51082;38.236;15.432;2023-11-18T01:52:34;101445.19;;;22.51
64296;BMP280;51082;38.236;15.432;2023-11-18T01:53:36;101445.94;;;22.47
64296;BMP280;51082;38.236;15.432;2023-11-18T01:54:39;101435.63;;;22.50
64296;BMP280;51082;38.236;15.432;2023-11-18T01:55:40;101439.31;;;22.49
64296;BMP280;51082;38.236;15.432;2023-11-18T01:56:43;101449.91;;;22.49
64296;BMP280;51082;38.236;15.432;2023-11-18T01:57:44;101436.13;;;22.47
64296;BMP280;51082;38.236;15.432;2023-11-18T01:58:46;101441.44;;;22.47
64296;BMP280;51082;38.236;15.432;2023-11-18T01:59:48;101435.84;;;22.49
64296;BMP280;51082;38.236;15.432;2023-11-18T02:00:49;101445.19;;;22.51
64296;BMP280;51082;38.236;15.432;2023-11-18T02:01:52;101443.03;;;22.48
64296;BMP280;51082;38.236;15.432;2023-11-18T02:02:54;101446.44;;;22.44
64296;BMP280;51082;38.236;15.432;2023-11-18T02:03:56;101445.16;;;22.46
64296;BMP280;51082;38.236;15.432;2023-11-18T02:04:57;101443.03;;;22.48
64296;BMP280;51082;38.236;15.432;2023-11-18T02:06:02;101447.56;;;22.48
64296;BMP280;51082;38.236;15.432;2023-11-18T02:07:05;101432.13;;;22.50
64296;BMP280;51082;38.236;15.432;2023-11-18T02:08:11;101438.28;;;22.50
64296;BMP280;51082;38.236;15.432;2023-11-18T02:09:14;101444.59;;;22.49
64296;BMP280;51082;38.236;15.432;2023-11-18T02:10:17;101452.84;;;22.48
64296;BMP280;51082;38.236;15.432;2023-11-18T02:11:20;101440.38;;;22.48
64296;BMP280;51082;38.236;15.432;2023-11-18T02:12:26;101435.53;;;22.40
64296;BMP280;51082;38.236;15.432;2023-11-18T02:13:31;101446.75;;;22.47
64296;BMP280;51082;38.236;15.432;2023-11-18T02:14:34;101451.25;;;22.47
64296;BMP280;51082;38.236;15.432;2023-11-18T02:15:38;101457.63;;;22.46
64296;BMP280;51082;38.236;15.432;2023-11-18T02:16:40;101462.91;;;22.46
64296;BMP280;51082;38.236;15.432;2023-11-18T02:17:42;101469.03;;;22.46
64296;BMP280;51082;38.236;15.432;2023-11-18T02:18:44;101456.31;;;22.48
64296;BMP280;51082;38.236;15.432;2023-11-18T02:19:47;101456.56;;;22.47
64296;BMP280;51082;38.236;15.432;2023-11-18T02:20:48;101451.25;;;22.47
64296;BMP280;51082;38.236;15.432;2023-11-18T02:21:52;101453.66;;;22.48
64296;BMP280;51082;38.236;15.432;2023-11-18T02:22:54;101457.66;;;22.51
64296;BMP280;51082;38.236;15.432;2023-11-18T02:23:58;101456.03;;;22.50
64296;BMP280;51082;38.236;15.432;2023-11-18T02:25:01;101469.88;;;22.52
64296;BMP280;51082;38.236;15.432;2023-11-18T02:26:08;101469.88;;;22.52
64296;BMP280;51082;38.236;15.432;2023-11-18T02:27:09;101471.44;;;22.53
64296;BMP280;51082;38.236;15.432;2023-11-18T02:28:14;101466.41;;;22.51
64296;BMP280;51082;38.236;15.432;2023-11-18T02:29:15;101467.19;;;22.47
64296;BMP280;51082;38.236;15.432;2023-11-18T02:30:16;101471.16;;;22.49
64296;BMP280;51082;38.236;15.432;2023-11-18T02:31:20;101473.28;;;22.47
64296;BMP280;51082;38.236;15.432;2023-11-18T02:32:23;101474.09;;;22.48
64296;BMP280;51082;38.236;15.432;2023-11-18T02:33:27;101475.13;;;22.47
64296;BMP280;51082;38.236;15.432;2023-11-18T02:34:30;101467.69;;;22.49
64296;BMP280;51082;38.236;15.432;2023-11-18T02:35:37;101463.19;;;22.49
64296;BMP280;51082;38.236;15.432;2023-11-18T02:36:39;101477.03;;;22.51
64296;BMP280;51082;38.236;15.432;2023-11-18T02:37:42;101473.59;;;22.51
64296;BMP280;51082;38.236;15.432;2023-11-18T02:38:46;101473.81;;;22.49
64296;BMP280;51082;38.236;15.432;2023-11-18T02:39:51;101475.66;;;22.44
64296;BMP280;51082;38.236;15.432;2023-11-18T02:40:55;101474.56;;;22.45
64296;BMP280;51082;38.236;15.432;2023-11-18T02:41:59;101475.13;;;22.47
64296;BMP280;51082;38.236;15.432;2023-11-18T02:43:02;101480.19;;;22.48
64296;BMP280;51082;38.236;15.432;2023-11-18T02:44:06;101476.47;;;22.49
64296;BMP280;51082;38.236;15.432;2023-11-18T02:45:11;101477.84;;;22.52
64296;BMP280;51082;38.236;15.432;2023-11-18T02:46:17;101487.38;;;22.53
64296;BMP280;51082;38.236;15.432;2023-11-18T02:47:18;101479.69;;;22.51
64296;BMP280;51082;38.236;15.432;2023-11-18T02:48:19;101487.06;;;22.49
64296;BMP280;51082;38.236;15.432;2023-11-18T02:49:21;101478.09;;;22.50
64296;BMP280;51082;38.236;15.432;2023-11-18T02:50:22;101474.38;;;22.51
64296;BMP280;51082;38.236;15.432;2023-11-18T02:51:25;101474.09;;;22.48
64296;BMP280;51082;38.236;15.432;2023-11-18T02:52:26;101478.88;;;22.51
64296;BMP280;51082;38.236;15.432;2023-11-18T02:53:27;101478.63;;;22.52
64296;BMP280;51082;38.236;15.432;2023-11-18T02:54:30;101479.41;;;22.53
64296;BMP280;51082;38.236;15.432;2023-11-18T02:55:31;101482.88;;;22.53
64296;BMP280;51082;38.236;15.432;2023-11-18T02:56:33;101487.88;;;22.50
64296;BMP280;51082;38.236;15.432;2023-11-18T02:57:35;101482.84;;;22.48
64296;BMP280;51082;38.236;15.432;2023-11-18T02:58:37;101489.22;;;22.47
64296;BMP280;51082;38.236;15.432;2023-11-18T02:59:38;101490.25;;;22.46
64296;BMP280;51082;38.236;15.432;2023-11-18T03:00:40;101478.59;;;22.47
64296;BMP280;51082;38.236;15.432;2023-11-18T03:01:41;101484.69;;;22.48
64296;BMP280;51082;38.236;15.432;2023-11-18T03:02:44;101486.28;;;22.49
64296;BMP280;51082;38.236;15.432;2023-11-18T03:03:47;101494.00;;;22.50
64296;BMP280;51082;38.236;15.432;2023-11-18T03:04:49;101481.75;;;22.49
64296;BMP280;51082;38.236;15.432;2023-11-18T03:05:51;101483.63;;;22.49
64296;BMP280;51082;38.236;15.432;2023-11-18T03:06:53;101483.31;;;22.45
64296;BMP280;51082;38.236;15.432;2023-11-18T03:07:54;101476.19;;;22.46
64296;BMP280;51082;38.236;15.432;2023-11-18T03:08:58;101481.50;;;22.46
64296;BMP280;51082;38.236;15.432;2023-11-18T03:09:59;101479.09;;;22.44
64296;BMP280;51082;38.236;15.432;2023-11-18T03:11:01;101477.00;;;22.46
64296;BMP280;51082;38.236;15.432;2023-11-18T03:12:05;101474.34;;;22.46
64296;BMP280;51082;38.236;15.432;2023-11-18T03:13:10;101471.69;;;22.46
64296;BMP280;51082;38.236;15.432;2023-11-18T03:14:12;101473.53;;;22.46
64296;BMP280;51082;38.236;15.432;2023-11-18T03:15:14;101469.25;;;22.45
64296;BMP280;51082;38.236;15.432;2023-11-18T03:16:17;101458.41;;;22.46
64296;BMP280;51082;38.236;15.432;2023-11-18T03:17:19;101471.16;;;22.49
64296;BMP280;51082;38.236;15.432;2023-11-18T03:18:20;101465.56;;;22.46
64296;BMP280;51082;38.236;15.432;2023-11-18T03:19:23;101459.44;;;22.45
64296;BMP280;51082;38.236;15.432;2023-11-18T03:20:24;101463.13;;;22.39
64296;BMP280;51082;38.236;15.432;2023-11-18T03:21:26;101465.28;;;22.42
64296;BMP280;51082;38.236;15.432;2023-11-18T03:22:27;101463.19;;;22.44
64296;BMP280;51082;38.236;15.432;2023-11-18T03:23:30;101470.88;;;22.46
64296;BMP280;51082;38.236;15.432;2023-11-18T03:24:31;101473.00;;;22.44
64296;BMP280;51082;38.236;15.432;2023-11-18T03:25:33;101476.69;;;22.43
64296;BMP280;51082;38.236;15.432;2023-11-18T03:26:34;101483.59;;;22.44
64296;BMP280;51082;38.236;15.432;2023-11-18T03:27:36;101487.06;;;22.44
64296;BMP280;51082;38.236;15.432;2023-11-18T03:28:39;101494.47;;;22.42
64296;BMP280;51082;38.236;15.432;2023-11-18T03:29:41;101483.81;;;22.37
64296;BMP280;51082;38.236;15.432;2023-11-18T03:30:44;101485.72;;;22.42
64296;BMP280;51082;38.236;15.432;2023-11-18T03:31:47;101499.47;;;22.38
64296;BMP280;51082;38.236;15.432;2023-11-18T03:32:49;101501.31;;;22.38
64296;BMP280;51082;38.236;15.432;2023-11-18T03:33:51;101491.50;;;22.38
64296;BMP280;51082;38.236;15.432;2023-11-18T03:34:52;101495.78;;;22.39
64296;BMP280;51082;38.236;15.432;2023-11-18T03:35:54;101488.63;;;22.40
64296;BMP280;51082;38.236;15.432;2023-11-18T03:36:56;101490.72;;;22.38
64296;BMP280;51082;38.236;15.432;2023-11-18T03:37:58;101480.34;;;22.36
64296;BMP280;51082;38.236;15.432;2023-11-18T03:38:59;101491.22;;;22.35
64296;BMP280;51082;38.236;15.432;2023-11-18T03:40:02;101491.78;;;22.37
64296;BMP280;51082;38.236;15.432;2023-11-18T03:41:05;101483.00;;;22.36
64296;BMP280;51082;38.236;15.432;2023-11-18T03:42:09;101495.72;;;22.34
64296;BMP280;51082;38.236;15.432;2023-11-18T03:43:10;101489.06;;;22.32
64296;BMP280;51082;38.236;15.432;2023-11-18T03:44:13;101485.59;;;22.31
64296;BMP280;51082;38.236;15.432;2023-11-18T03:45:14;101491.72;;;22.32
64296;BMP280;51082;38.236;15.432;2023-11-18T03:46:18;101479.50;;;22.31
64296;BMP280;51082;38.236;15.432;2023-11-18T03:47:19;101481.09;;;22.32
64296;BMP280;51082;38.236;15.432;2023-11-18T03:48:24;101481.94;;;22.32
64296;BMP280;51082;38.236;15.432;2023-11-18T03:49:25;101492.28;;;22.34
64296;BMP280;51082;38.236;15.432;2023-11-18T03:50:27;101485.09;;;22.34
64296;BMP280;51082;38.236;15.432;2023-11-18T03:51:29;101488.31;;;22.36
64296;BMP280;51082;38.236;15.432;2023-11-18T03:52:31;101490.72;;;22.38
64296;BMP280;51082;38.236;15.432;2023-11-18T03:53:32;101482.22;;;22.36
64296;BMP280;51082;38.236;15.432;2023-11-18T03:54:35;101483.81;;;22.37
64296;BMP280;51082;38.236;15.432;2023-11-18T03:55:36;101485.41;;;22.38
64296;BMP280;51082;38.236;15.432;2023-11-18T03:56:38;101483.25;;;22.35
64296;BMP280;51082;38.236;15.432;2023-11-18T03:57:39;101480.59;;;22.35
64296;BMP280;51082;38.236;15.432;2023-11-18T03:58:41;101492.03;;;22.35
64296;BMP280;51082;38.236;15.432;2023-11-18T03:59:44;101485.91;;;22.35
64296;BMP280;51082;38.236;15.432;2023-11-18T04:00:46;101483.00;;;22.36
64296;BMP280;51082;38.236;15.432;2023-11-18T04:01:48;101481.41;;;22.35
64296;BMP280;51082;38.236;15.432;2023-11-18T04:02:51;101488.31;;;22.36
64296;BMP280;51082;38.236;15.432;2023-11-18T04:03:52;101483.81;;;22.37
64296;BMP280;51082;38.236;15.432;2023-11-18T04:04:54;101489.66;;;22.39
64296;BMP280;51082;38.236;15.432;2023-11-18T04:05:55;101490.72;;;22.38
64296;BMP280;51082;38.236;15.432;2023-11-18T04:06:57;101493.38;;;22.38
64296;BMP280;51082;38.236;15.432;2023-11-18T04:07:58;101493.88;;;22.35
64296;BMP280;51082;38.236;15.432;2023-11-18T04:09:00;101492.03;;;22.35
64296;BMP280;51082;38.236;15.432;2023-11-18T04:10:01;101487.50;;;22.36
64296;BMP280;51082;38.236;15.432;2023-11-18T04:11:06;101487.50;;;22.36
64296;BMP280;51082;38.236;15.432;2023-11-18T04:12:07;101485.91;;;22.35
64296;BMP280;51082;38.236;15.432;2023-11-18T04:13:10;101489.38;;;22.35
64296;BMP280;51082;38.236;15.432;2023-11-18T04:14:11;101487.72;;;22.29
64296;BMP280;51082;38.236;15.432;2023-11-18T04:15:15;101499.13;;;22.30
64296;BMP280;51082;38.236;15.432;2023-11-18T04:16:16;101495.66;;;22.29
64296;BMP280;51082;38.236;15.432;2023-11-18T04:17:19;101487.41;;;22.26
64296;BMP280;51082;38.236;15.432;2023-11-18T04:18:20;101494.63;;;22.30
64296;BMP280;51082;38.236;15.432;2023-11-18T04:19:24;101500.72;;;22.31
64296;BMP280;51082;38.236;15.432;2023-11-18T04:20:25;101508.69;;;22.31
64296;BMP280;51082;38.236;15.432;2023-11-18T04:21:27;101504.94;;;22.27
64296;BMP280;51082;38.236;15.432;2023-11-18T04:22:28;101497.56;;;22.29
64296;BMP280;51082;38.236;15.432;2023-11-18T04:23:30;101495.13;;;22.27
64296;BMP280;51082;38.236;15.432;2023-11-18T04:24:31;101500.44;;;22.27
64296;BMP280;51082;38.236;15.432;2023-11-18T04:25:35;101497.56;;;22.29
64296;BMP280;51082;38.236;15.432;2023-11-18T04:26:36;101495.94;;;22.28
64296;BMP280;51082;38.236;15.432;2023-11-18T04:27:38;101499.13;;;22.30
64296;BMP280;51082;38.236;15.432;2023-11-18T04:28:39;101498.31;;;22.29
64296;BMP280;51082;38.236;15.432;2023-11-18T04:29:42;101500.22;;;22.29
64296;BMP280;51082;38.236;15.432;2023-11-18T04:30:44;101496.47;;;22.30
64296;BMP280;51082;38.236;15.432;2023-11-18T04:31:45;101496.97;;;22.27
64296;BMP280;51082;38.236;15.432;2023-11-18T04:32:47;101501.25;;;22.28
64296;BMP280;51082;38.236;15.432;2023-11-18T04:33:48;101502.06;;;22.28
64296;BMP280;51082;38.236;15.432;2023-11-18T04:34:51;101500.44;;;22.27
64296;BMP280;51082;38.236;15.432;2023-11-18T04:35:52;101496.75;;;22.28
64296;BMP280;51082;38.236;15.432;2023-11-18T04:36:54;101506.03;;;22.31
64296;BMP280;51082;38.236;15.432;2023-11-18T04:37:56;101516.66;;;22.31
64296;BMP280;51082;38.236;15.432;2023-11-18T04:38:57;101507.38;;;22.28
64296;BMP280;51082;38.236;15.432;2023-11-18T04:39:59;101516.91;;;22.29
64296;BMP280;51082;38.236;15.432;2023-11-18T04:41:00;101518.25;;;22.32
64296;BMP280;51082;38.236;15.432;2023-11-18T04:42:04;101521.44;;;22.29
64296;BMP280;51082;38.236;15.432;2023-11-18T04:43:06;101527.78;;;22.28
64296;BMP280;51082;38.236;15.432;2023-11-18T04:44:07;101521.91;;;22.26
64296;BMP280;51082;38.236;15.432;2023-11-18T04:45:09;101527.78;;;22.28
64296;BMP280;51082;38.236;15.432;2023-11-18T04:46:12;101533.09;;;22.28
64296;BMP280;51082;38.236;15.432;2023-11-18T04:47:14;101535.47;;;22.29
64296;BMP280;51082;38.236;15.432;2023-11-18T04:48:15;101532.56;;;22.31
64296;BMP280;51082;38.236;15.432;2023-11-18T04:49:17;101535.16;;;22.26
64296;BMP280;51082;38.236;15.432;2023-11-18T04:50:18;101538.41;;;22.28
64296;BMP280;51082;38.236;15.432;2023-11-18T04:51:21;101542.88;;;22.27
64296;BMP280;51082;38.236;15.432;2023-11-18T04:52:23;101537.56;;;22.27
64296;BMP280;51082;38.236;15.432;2023-11-18T04:53:25;101533.84;;;22.23
64296;BMP280;51082;38.236;15.432;2023-11-18T04:54:26;101536.75;;;22.27
64296;BMP280;51082;38.236;15.432;2023-11-18T04:55:28;101533.91;;;22.28
64296;BMP280;51082;38.236;15.432;2023-11-18T04:56:29;101541.06;;;22.28
64296;BMP280;51082;38.236;15.432;2023-11-18T04:57:32;101536.53;;;22.28
64296;BMP280;51082;38.236;15.432;2023-11-18T04:58:33;101536.75;;;22.27
64296;BMP280;51082;38.236;15.432;2023-11-18T04:59:35;101538.41;;;22.28
64296;BMP280;51082;38.236;15.432;2023-11-18T05:00:36;101538.13;;;22.29
64296;BMP280;51082;38.236;15.432;2023-11-18T05:01:40;101537.56;;;22.27
64296;BMP280;51082;38.236;15.432;2023-11-18T05:02:41;101544.19;;;22.25
64296;BMP280;51082;38.236;15.432;2023-11-18T05:03:48;101540.22;;;22.27
64296;BMP280;51082;38.236;15.432;2023-11-18T05:04:49;101540.47;;;22.26
64296;BMP280;51082;38.236;15.432;2023-11-18T05:05:51;101544.72;;;22.27
64296;BMP280;51082;38.236;15.432;2023-11-18T05:06:52;101534.38;;;22.25
64296;BMP280;51082;38.236;15.432;2023-11-18T05:07:54;101546.06;;;22.24
64296;BMP280;51082;38.236;15.432;2023-11-18T05:08:55;101541.56;;;22.25
64296;BMP280;51082;38.236;15.432;2023-11-18T05:09:57;101536.25;;;22.25
64296;BMP280;51082;38.236;15.432;2023-11-18T05:10:58;101543.94;;;22.26
64296;BMP280;51082;38.236;15.432;2023-11-18T05:12:00;101549.00;;;22.28
64296;BMP280;51082;38.236;15.432;2023-11-18T05:13:01;101542.06;;;22.27
64296;BMP280;51082;38.236;15.432;2023-11-18T05:14:03;101548.19;;;22.27
64296;BMP280;51082;38.236;15.432;2023-11-18T05:15:05;101542.88;;;22.27
64296;BMP280;51082;38.236;15.432;2023-11-18T05:16:08;101545.78;;;22.26
64296;BMP280;51082;38.236;15.432;2023-11-18T05:17:12;101552.69;;;22.27
64296;BMP280;51082;38.236;15.432;2023-11-18T05:18:14;101544.97;;;22.25
64296;BMP280;51082;38.236;15.432;2023-11-18T05:19:16;101556.38;;;22.26
64296;BMP280;51082;38.236;15.432;2023-11-18T05:20:17;101556.38;;;22.26
64296;BMP280;51082;38.236;15.432;2023-11-18T05:21:18;101556.38;;;22.26
64296;BMP280;51082;38.236;15.432;2023-11-18T05:22:20;101547.91;;;22.24
64296;BMP280;51082;38.236;15.432;2023-11-18T05:23:21;101555.88;;;22.24
64296;BMP280;51082;38.236;15.432;2023-11-18T05:24:23;101556.06;;;22.22
64296;BMP280;51082;38.236;15.432;2023-11-18T05:25:24;101559.03;;;22.26
64296;BMP280;51082;38.236;15.432;2023-11-18T05:26:26;101557.19;;;22.26
64296;BMP280;51082;38.236;15.432;2023-11-18T05:27:27;101557.19;;;22.26
64296;BMP280;51082;38.236;15.432;2023-11-18T05:28:30;101559.31;;;22.24
64296;BMP280;51082;38.236;15.432;2023-11-18T05:29:31;101565.94;;;22.27
64296;BMP280;51082;38.236;15.432;2023-11-18T05:30:32;101567.00;;;22.26
64296;BMP280;51082;38.236;15.432;2023-11-18T05:31:34;101552.09;;;22.20
64296;BMP280;51082;38.236;15.432;2023-11-18T05:32:37;101568.59;;;22.27
64296;BMP280;51082;38.236;15.432;2023-11-18T05:33:41;101571.50;;;22.25
64296;BMP280;51082;38.236;15.432;2023-11-18T05:34:42;101568.84;;;22.25
64296;BMP280;51082;38.236;15.432;2023-11-18T05:35:44;101575.22;;;22.24
64296;BMP280;51082;38.236;15.432;2023-11-18T05:36:49;101569.13;;;22.24
64296;BMP280;51082;38.236;15.432;2023-11-18T05:37:54;101573.63;;;22.23
64296;BMP280;51082;38.236;15.432;2023-11-18T05:38:56;101571.78;;;22.24
64296;BMP280;51082;38.236;15.432;2023-11-18T05:39:57;101576.28;;;22.23
64296;BMP280;51082;38.236;15.432;2023-11-18T05:41:06;101576.50;;;22.22
64296;BMP280;51082;38.236;15.432;2023-11-18T05:42:17;101583.41;;;22.23
64296;BMP280;51082;38.236;15.432;2023-11-18T05:43:19;101579.75;;;22.24
64296;BMP280;51082;38.236;15.432;2023-11-18T05:44:21;101586.91;;;22.23
64296;BMP280;51082;38.236;15.432;2023-11-18T05:45:31;101584.47;;;22.22
64296;BMP280;51082;38.236;15.432;2023-11-18T05:46:37;101589.56;;;22.23
64296;BMP280;51082;38.236;15.432;2023-11-18T05:47:41;101588.72;;;22.23
64296;BMP280;51082;38.236;15.432;2023-11-18T05:48:42;101578.09;;;22.23